createdAt,value
2023-05-12T03:40:01.743Z,4493.0
2023-05-12T03:43:00.781Z,4675.5
2023-05-12T03:44:00.651Z,4785.0
2023-05-12T03:45:01.515Z,5007.7
2023-05-12T03:47:00.734Z,5286.0
2023-05-12T03:48:00.679Z,5471.4
2023-05-12T03:49:00.651Z,5619.8
2023-05-12T03:50:00.888Z,5823.4
2023-05-12T03:51:00.660Z,5993.0
2023-05-12T03:52:00.672Z,6136.5
2023-05-12T03:53:00.652Z,6337.5
2023-05-12T03:54:00.652Z,6511.7
2023-05-12T03:55:00.867Z,6882.1
2023-05-12T03:56:00.713Z,7252.6
2023-05-12T03:57:00.659Z,7623.1
2023-05-12T03:58:00.661Z,8026.7
2023-05-12T03:59:00.669Z,8430.3
2023-05-12T04:02:00.692Z,9760.3
2023-05-12T04:03:00.834Z,10247.2
2023-05-12T04:04:00.719Z,10734.1
2023-05-12T04:05:01.880Z,11281.1
2023-05-12T04:07:00.720Z,12374.9
2023-05-12T04:08:00.664Z,12991.9
2023-05-12T04:09:00.673Z,13608.9
2023-05-12T04:10:00.874Z,14270.7
2023-05-12T04:11:00.683Z,14932.4
2023-05-12T04:12:00.679Z,15594.1
2023-05-12T04:13:00.658Z,16256.6
2023-05-12T04:14:00.663Z,16919.1
2023-05-12T04:15:01.427Z,17541.1
2023-05-12T04:17:00.677Z,18785.1
2023-05-12T04:18:00.710Z,19366.5
2023-05-12T04:19:00.764Z,19947.9
2023-05-12T04:20:02.422Z,20464.8
2023-05-12T04:21:00.693Z,20981.7
2023-05-12T04:22:00.663Z,21498.7
2023-05-12T04:23:00.663Z,21887.7
2023-05-12T04:24:00.669Z,22276.8
2023-05-12T04:25:00.887Z,22582.9
2023-05-12T04:26:00.683Z,22888.9
2023-05-12T04:27:00.667Z,23195.0
2023-05-12T04:28:00.692Z,23445.9
2023-05-12T04:29:00.660Z,23696.7
2023-05-12T04:32:00.700Z,24603.5
2023-05-12T04:33:00.676Z,25002.6
2023-05-12T04:34:00.681Z,25401.7
2023-05-12T04:35:01.847Z,25910.3
2023-05-12T04:36:00.713Z,26419.0
2023-05-12T04:37:00.665Z,26927.7
2023-05-12T04:38:00.672Z,27480.5
2023-05-12T04:39:00.675Z,28033.4
2023-05-12T04:40:00.903Z,28624.8
2023-05-12T04:41:00.704Z,29216.2
2023-05-12T04:42:00.676Z,29807.6
2023-05-12T04:43:00.770Z,30476.5
2023-05-12T04:44:00.908Z,31145.3
2023-05-12T04:45:01.664Z,31738.5
2023-05-12T04:47:00.678Z,32924.9
2023-05-12T04:48:00.698Z,33406.1
2023-05-12T04:49:00.675Z,33887.2
2023-05-12T04:50:01.518Z,34320.3
2023-05-12T04:52:00.679Z,35186.4
2023-05-12T04:53:00.671Z,35762.5
2023-05-12T04:54:00.676Z,36338.5
2023-05-12T04:55:00.952Z,37103.1
2023-05-12T04:56:00.705Z,37867.6
2023-05-12T04:57:00.685Z,38632.1
2023-05-12T04:58:00.701Z,39422.4
2023-05-12T04:59:00.672Z,40212.7
2023-05-12T05:02:00.678Z,42794.3
2023-05-12T05:03:00.739Z,43746.5
2023-05-12T05:04:00.714Z,44698.8
2023-05-12T05:07:00.685Z,47972.8
2023-05-12T05:08:00.680Z,49027.3
2023-05-12T05:30:01.736Z,65535.0
2023-05-12T06:45:01.792Z,65535.0
2023-05-12T07:15:01.808Z,65535.0
2023-05-12T07:30:02.020Z,65535.0
2023-05-12T08:40:02.047Z,65535.0
2023-05-12T09:15:01.713Z,65535.0
2023-05-12T10:30:01.361Z,65535.0
2023-05-12T11:30:01.564Z,65535.0
2023-05-12T11:45:02.875Z,65535.0
2023-05-12T12:40:01.492Z,65535.0
2023-05-12T12:45:01.122Z,65535.0
2023-05-12T13:00:01.560Z,65535.0
2023-05-12T14:00:01.459Z,65535.0
2023-05-12T14:15:23.933Z,65535.0
2023-05-12T14:30:02.006Z,65535.0
2023-05-12T14:45:02.234Z,65535.0
2023-05-12T15:15:01.213Z,65535.0
2023-05-12T16:00:02.052Z,65535.0
2023-05-12T16:15:01.222Z,65535.0
2023-05-12T16:30:01.112Z,65535.0
2023-05-12T16:34:00.406Z,65266.2
2023-05-12T16:37:00.201Z,62352.9
2023-05-12T16:38:00.197Z,61030.6
2023-05-12T16:39:00.182Z,59586.5
2023-05-12T16:40:01.203Z,58142.3
2023-05-12T16:42:00.180Z,54900.6
2023-05-12T16:43:00.182Z,53279.7
2023-05-12T16:44:00.193Z,51578.7
2023-05-12T16:47:00.196Z,46408.8
2023-05-12T16:48:00.258Z,44674.4
2023-05-12T16:49:00.182Z,43156.6
2023-05-12T16:50:01.651Z,41638.8
2023-05-12T16:51:00.179Z,41140.5
2023-05-12T16:52:00.186Z,40642.1
2023-05-12T16:53:00.190Z,40143.8
2023-05-12T16:54:00.210Z,39733.1
2023-05-12T16:55:01.029Z,39322.5
2023-05-12T16:56:00.202Z,39053.9
2023-05-12T16:57:00.185Z,38785.3
2023-05-12T16:58:00.182Z,38516.7
2023-05-12T16:59:00.198Z,38288.1
2023-05-12T17:00:01.362Z,38059.5
2023-05-12T17:02:00.341Z,37604.9
2023-05-12T17:03:00.940Z,37377.7
2023-05-12T17:04:00.285Z,37172.7
2023-05-12T17:07:00.184Z,36575.5
2023-05-12T17:08:00.183Z,36379.4
2023-05-12T17:32:00.501Z,29865.0
2023-05-12T17:33:00.533Z,29812.8
2023-05-12T17:34:00.531Z,29639.2
2023-05-12T17:35:00.728Z,29523.5
2023-05-12T17:36:10.627Z,29350.4
2023-05-12T17:37:00.504Z,29220.6
2023-05-12T17:38:00.564Z,29119.7
2023-05-12T17:39:00.497Z,28978.8
2023-05-12T17:40:00.717Z,28863.5
2023-05-12T17:41:00.508Z,28715.0
2023-05-12T17:42:00.532Z,28589.3
2023-05-12T17:43:00.543Z,28481.6
2023-05-12T17:44:00.503Z,28346.0
2023-05-12T17:45:02.298Z,28090.3
2023-05-12T17:46:00.545Z,27835.3
2023-05-12T17:47:00.526Z,27580.2
2023-05-12T17:48:00.574Z,27325.1
2023-05-12T17:49:00.505Z,27073.9
2023-05-12T17:50:02.436Z,26822.6
2023-05-12T17:52:00.506Z,26318.5
2023-05-12T17:53:00.579Z,26066.4
2023-05-12T17:54:00.505Z,25810.7
2023-05-12T17:57:00.528Z,25042.3
2023-05-12T17:58:00.541Z,24785.9
2023-05-12T17:59:00.506Z,24531.3
2023-05-12T18:02:00.625Z,23768.1
2023-05-12T18:03:00.696Z,23513.8
2023-05-12T18:30:01.090Z,14748.0
2023-05-12T18:32:00.117Z,14282.7
2023-05-12T18:33:00.205Z,14224.5
2023-05-12T18:34:00.159Z,14046.0
2023-05-12T18:35:00.937Z,13927.0
2023-05-12T18:36:00.121Z,13737.4
2023-05-12T18:37:00.129Z,13595.3
2023-05-12T18:38:00.157Z,13484.7
2023-05-12T18:39:00.165Z,13323.5
2023-05-12T18:40:00.956Z,13191.6
2023-05-12T18:42:00.159Z,12876.6
2023-05-12T18:43:00.146Z,12752.9
2023-05-12T18:44:00.197Z,12596.5
2023-05-12T18:45:00.986Z,12307.2
2023-05-12T18:47:00.234Z,11724.3
2023-05-12T18:48:00.203Z,11432.8
2023-05-12T18:49:00.160Z,11140.4
2023-05-12T18:50:01.685Z,10848.0
2023-05-12T18:52:00.165Z,10263.7
2023-05-12T18:53:00.135Z,9971.6
2023-05-12T18:54:00.195Z,9680.1
2023-05-12T18:57:00.161Z,8809.7
2023-05-12T18:58:00.160Z,8520.3
2023-05-12T18:59:00.165Z,8234.6
2023-05-12T19:00:01.142Z,7948.9
2023-05-12T19:02:00.353Z,7386.9
2023-05-12T19:03:00.193Z,7105.9
2023-05-12T19:04:00.196Z,6830.9
2023-05-12T19:07:00.202Z,6020.4
2023-05-12T19:08:00.169Z,5752.7
2023-05-12T19:09:00.166Z,5494.1
2023-05-12T19:10:01.002Z,5235.5
2023-05-12T19:12:00.150Z,4739.1
2023-05-12T19:13:00.146Z,4490.9
2023-05-12T19:14:00.169Z,4255.5
2023-05-12T19:17:00.240Z,3580.7
2023-05-12T19:18:00.217Z,3361.1
2023-05-12T19:19:00.209Z,3159.1
2023-05-12T19:22:00.162Z,2591.1
2023-05-12T19:23:00.142Z,2408.1
2023-05-12T19:24:00.177Z,2243.9
2023-05-12T19:25:00.975Z,2079.8
2023-05-12T19:27:00.159Z,1789.7
2023-05-12T19:28:00.173Z,1644.6
2023-05-12T19:29:00.175Z,1518.0
2023-05-12T19:30:01.228Z,1391.4
2023-05-12T19:32:00.219Z,1172.3
2023-05-12T19:33:00.219Z,1062.8
2023-05-12T19:34:00.222Z,969.6
2023-05-12T19:35:01.181Z,876.4
2023-05-12T19:37:00.148Z,720.8
2023-05-12T19:38:00.217Z,643.0
2023-05-12T19:39:00.515Z,579.9
2023-05-12T19:40:01.036Z,516.7
2023-05-12T19:42:00.212Z,416.7
2023-05-12T19:43:00.207Z,366.7
2023-05-12T19:44:00.195Z,328.1
2023-05-12T19:45:03.180Z,289.4
2023-05-12T19:47:00.142Z,230.2
2023-05-12T19:48:00.233Z,200.6
2023-05-12T19:49:00.194Z,178.4
2023-05-12T19:50:01.221Z,156.2
2023-05-12T19:52:00.155Z,123.4
2023-05-12T19:53:00.148Z,107.0
2023-05-12T19:54:00.205Z,95.0
2023-05-12T19:55:00.858Z,83.0
2023-05-12T19:57:00.165Z,65.5
2023-05-12T19:58:00.198Z,56.8
2023-05-12T19:59:00.189Z,50.5
2023-05-12T20:00:15.933Z,44.1
2023-05-12T20:01:00.195Z,39.5
2023-05-12T20:02:00.186Z,34.9
2023-05-12T20:03:00.360Z,30.3
2023-05-12T20:04:00.180Z,26.9
2023-05-12T20:07:00.176Z,18.5
2023-05-12T20:08:00.186Z,15.9
2023-05-12T20:09:00.214Z,14.1
2023-05-12T20:10:00.978Z,12.3
2023-05-12T20:12:00.147Z,9.7
2023-05-12T20:13:00.163Z,8.3
2023-05-12T20:14:00.182Z,7.3
2023-05-12T20:17:00.246Z,5.0
2023-05-12T20:18:00.233Z,4.3
2023-05-12T20:19:02.592Z,3.8
2023-05-12T20:20:01.507Z,3.3
2023-05-12T20:22:00.184Z,2.6
2023-05-12T20:23:00.190Z,2.3
2023-05-12T20:24:00.206Z,2.0
2023-05-12T20:27:00.151Z,1.5
2023-05-12T20:28:00.284Z,1.3
2023-05-12T20:29:00.318Z,1.2
2023-05-12T20:30:00.974Z,1.1
2023-05-12T20:32:00.149Z,0.8
2023-05-12T20:33:00.230Z,0.7
2023-05-12T20:34:00.335Z,0.6
2023-05-12T20:35:01.188Z,0.5
2023-05-12T20:37:00.249Z,0.4
2023-05-12T20:38:00.176Z,0.3
